Time;durP1;ratioP1;P1;durP2;ratioP2;P2;SDS_P1;SDS_P2;PMS_P1;PMS_P2;Temp;Humidity;BMP_temperature;BMP_pressure;BME280_temperature;BME280_humidity;BME280_pressure;Samples;Min_cycle;Max_cycle;Signal;HPM_P1;HPM_P2
2022/09/06 00:00:14;;;;;;;;;12.75;10.75;;;;;23.32;64.06;101522.03;146596;678;46018;-80
2022/09/06 00:03:07;;;;;;;;;12.25;11.50;;;;;23.34;65.19;101522.06;146598;613;47008;-82
2022/09/06 00:06:14;;;;;;;;;11.00;9.75;;;;;23.25;63.75;101528.13;146596;656;46011;-80
2022/09/06 00:09:12;;;;;;;;;11.75;10.25;;;;;23.14;64.48;101517.38;146601;679;46010;-77
2022/09/06 00:12:07;;;;;;;;;11.00;11.00;;;;;23.05;64.57;101518.19;146598;639;46019;-77
2022/09/06 00:15:07;;;;;;;;;12.50;11.25;;;;;23.03;65.09;101519.91;146593;609;47919;-78
2022/09/06 00:18:10;;;;;;;;;11.00;10.50;;;;;23.04;64.77;101510.22;146595;653;46018;-78
2022/09/06 00:21:13;;;;;;;;;13.75;12.75;;;;;22.95;65.89;101518.91;146600;626;46019;-79
2022/09/06 00:24:18;;;;;;;;;12.33;12.33;;;;;22.90;66.41;101512.66;146598;597;46010;-72
2022/09/06 00:27:25;;;;;;;;;;;;;;;;;;;;;
2022/09/06 00:30:18;;;;;;;;;12.67;12.33;;;;;22.82;67.15;101514.31;146599;627;46018;-77
2022/09/06 00:33:13;;;;;;;;;11.00;10.00;;;;;22.72;67.37;101510.66;146600;573;46026;-79
2022/09/06 00:36:14;;;;;;;;;12.00;11.00;;;;;22.68;66.65;101511.47;146602;587;46019;-79
2022/09/06 00:39:07;;;;;;;;;11.67;11.33;;;;;22.69;67.83;101504.44;146598;565;46018;-80
2022/09/06 00:41:59;;;;;;;;;10.33;10.33;;;;;22.71;68.08;101513.25;146595;553;46019;-77
2022/09/06 00:44:56;;;;;;;;;12.00;11.00;;;;;22.68;68.52;101508.84;146599;614;46010;-81
2022/09/06 00:47:53;;;;;;;;;11.00;10.50;;;;;22.62;68.03;101515.75;146597;640;46011;-82
2022/09/06 00:50:50;;;;;;;;;13.33;12.00;;;;;22.61;68.43;101514.87;146600;566;46012;-83
2022/09/06 00:53:46;;;;;;;;;12.00;10.67;;;;;22.64;68.63;101516.69;146592;591;46018;-84
2022/09/06 00:56:52;;;;;;;;;12.67;10.00;;;;;22.59;69.13;101511.34;146598;666;47008;-81
2022/09/06 01:00:03;;;;;;;;;10.67;10.67;;;;;22.50;69.34;101512.09;146597;569;46018;-84
2022/09/06 01:02:57;;;;;;;;;11.67;10.67;;;;;22.40;69.40;101520.75;146602;606;46013;-81
2022/09/06 01:06:30;;;;;;;;;13.00;13.00;;;;;20.49;69.00;101193.78;146597;620;46012;-82
2022/09/06 01:10:05;;;;;;;;;11.00;10.67;;;;;20.49;68.42;101210.47;146602;605;46010;-88
2022/09/06 01:13:33;;;;;;;;;11.33;10.67;;;;;22.25;68.74;101525.81;146594;571;46034;-80
2022/09/06 01:16:49;;;;;;;;;10.33;9.33;;;;;22.29;68.63;101524.97;146590;647;46018;-75
2022/09/06 01:20:28;;;;;;;;;11.67;9.33;;;;;20.76;68.24;101230.34;146597;557;46019;-78
2022/09/06 01:24:05;;;;;;;;;8.67;8.67;;;;;22.56;67.86;101514.84;146597;574;46032;-76
2022/09/06 01:28:04;;;;;;;;;14.75;13.00;;;;;20.73;68.60;101182.84;146596;569;46018;-76
2022/09/06 01:31:41;;;;;;;;;13.67;10.67;;;;;22.46;70.04;101518.22;146598;573;46027;-80
2022/09/06 01:34:44;;;;;;;;;11.67;9.33;;;;;22.25;68.74;101509.94;146601;680;46010;-78
2022/09/06 01:37:36;;;;;;;;;10.00;10.00;;;;;22.17;70.13;101512.47;146600;569;46018;-82
2022/09/06 01:40:35;;;;;;;;;9.67;9.67;;;;;22.08;69.68;101515.78;146595;569;46019;-78
2022/09/06 01:43:42;;;;;;;;;11.00;11.00;;;;;22.07;69.92;101508.75;146598;694;46010;-78
2022/09/06 01:46:47;;;;;;;;;10.00;10.00;;;;;22.17;70.20;101496.59;146599;567;46019;-78
2022/09/06 01:50:20;;;;;;;;;13.33;12.33;;;;;20.44;68.94;101179.69;146592;566;46018;-79
2022/09/06 01:53:55;;;;;;;;;11.00;10.00;;;;;20.51;68.75;101182.47;146596;579;46018;-79
2022/09/06 01:57:24;;;;;;;;;9.33;9.33;;;;;22.35;68.40;101494.25;146596;580;46019;-81
2022/09/06 02:00:34;;;;;;;;;7.00;6.00;;;;;22.30;69.13;101497.69;146592;627;46018;-78
2022/09/06 02:04:08;;;;;;;;;11.00;11.00;;;;;22.25;69.59;101500.28;146600;585;46018;-81
2022/09/06 02:07:35;;;;;;;;;;;;;;;;;;;;;
2022/09/06 02:11:00;;;;;;;;;7.33;7.33;;;;;20.26;68.89;101170.56;146599;597;46020;-76
2022/09/06 02:14:08;;;;;;;;;8.67;8.67;;;;;22.14;69.38;101489.47;146614;627;46010;-83
2022/09/06 02:17:06;;;;;;;;;10.33;8.67;;;;;22.18;70.41;101487.84;146615;602;45018;-76
2022/09/06 02:20:34;;;;;;;;;10.67;9.00;;;;;20.41;69.32;101169.97;146614;644;45912;-84
2022/09/06 02:23:45;;;;;;;;;9.67;9.67;;;;;22.27;70.46;101495.00;146612;589;45917;-80
2022/09/06 02:26:51;;;;;;;;;9.33;9.33;;;;;22.23;70.34;101498.47;146615;646;46915;-79
2022/09/06 02:29:50;;;;;;;;;9.33;8.33;;;;;22.25;70.68;101499.38;146615;569;46010;-79
2022/09/06 02:33:02;;;;;;;;;10.00;8.00;;;;;22.29;70.56;101502.09;146615;570;46010;-82
2022/09/06 02:36:25;;;;;;;;;7.67;7.00;;;;;22.32;69.78;101501.25;146613;580;46010;-78
2022/09/06 02:39:23;;;;;;;;;8.67;7.67;;;;;22.35;70.54;101498.66;146615;585;46912;-77
2022/09/06 02:42:31;;;;;;;;;6.67;6.67;;;;;22.43;70.46;101506.69;146614;601;47008;-72
2022/09/06 02:45:37;;;;;;;;;;;;;;;;;;;;;
2022/09/06 02:48:39;;;;;;;;;9.67;8.67;;;;;22.49;70.45;101504.13;146616;564;46010;-76
2022/09/06 02:51:39;;;;;;;;;7.00;7.00;;;;;22.50;71.26;101503.28;146614;611;45018;-75
2022/09/06 02:54:34;;;;;;;;;10.75;9.25;;;;;22.57;70.61;101508.66;146608;590;46018;-76
2022/09/06 02:57:36;;;;;;;;;11.75;9.50;;;;;22.70;70.08;101506.19;146611;680;45914;-76
2022/09/06 03:00:31;;;;;;;;;10.00;8.33;;;;;22.82;70.01;101506.38;146618;571;45024;-86
2022/09/06 03:03:27;;;;;;;;;7.33;7.00;;;;;22.87;70.68;101517.91;146612;586;46010;-82
2022/09/06 03:06:25;;;;;;;;;8.67;8.33;;;;;22.82;69.95;101516.94;146616;575;46917;-73
2022/09/06 03:09:25;;;;;;;;;8.00;8.00;;;;;22.71;69.94;101513.25;146608;646;46915;-75
2022/09/06 03:12:37;;;;;;;;;8.00;8.00;;;;;22.58;69.87;101514.84;146604;575;46018;-74
2022/09/06 03:15:42;;;;;;;;;6.67;6.00;;;;;22.54;70.43;101528.87;146607;591;46010;-73
2022/09/06 03:18:51;;;;;;;;;7.67;7.00;;;;;22.48;69.90;101529.69;146597;572;47008;-73
2022/09/06 03:21:46;;;;;;;;;8.00;8.00;;;;;22.45;70.33;101534.03;146603;582;46010;-72
2022/09/06 03:24:49;;;;;;;;;9.00;7.00;;;;;22.50;70.55;101527.06;146602;604;46019;-73
2022/09/06 03:28:00;;;;;;;;;;;;;;;;;;;;;
2022/09/06 03:31:14;;;;;;;;;;;;;;;;;;;;;
2022/09/06 03:34:09;;;;;;;;;10.67;8.33;;;;;22.63;71.28;101529.03;146602;584;46010;-75
2022/09/06 03:37:09;;;;;;;;;9.33;9.33;;;;;22.56;71.02;101535.09;146602;563;46010;-76
2022/09/06 03:40:01;;;;;;;;;11.00;10.00;;;;;22.49;70.75;101527.91;146601;590;46010;-75
2022/09/06 03:43:13;;;;;;;;;8.00;8.00;;;;;22.50;69.97;101527.97;146607;588;46008;-76
2022/09/06 03:46:13;;;;;;;;;10.00;9.00;;;;;22.58;70.97;101534.22;146603;585;46010;-76
2022/09/06 03:49:32;;;;;;;;;11.00;10.67;;;;;22.69;68.95;101538.81;146596;613;47008;-74
2022/09/06 03:52:25;;;;;;;;;24.00;18.25;;;;;22.74;69.91;101531.81;146599;565;46034;-73
2022/09/06 03:55:18;;;;;;;;;21.50;19.25;;;;;22.77;69.65;101535.41;146598;616;46019;-72
2022/09/06 03:58:10;;;;;;;;;11.00;9.00;;;;;22.75;68.57;101534.50;146602;723;46012;-72
2022/09/06 04:01:13;;;;;;;;;20.25;18.25;;;;;22.76;68.48;101538.00;146603;630;46018;-76
2022/09/06 04:04:06;;;;;;;;;22.50;20.00;;;;;22.78;68.07;101538.94;146598;579;46010;-77
2022/09/06 04:07:04;;;;;;;;;19.75;19.75;;;;;22.81;67.52;101533.69;146604;580;46010;-74
2022/09/06 04:09:56;;;;;;;;;16.00;15.50;;;;;22.81;67.46;101538.97;146598;604;46010;-73
2022/09/06 04:12:52;;;;;;;;;16.50;15.25;;;;;22.79;67.20;101535.41;146597;676;46018;-72
2022/09/06 04:16:00;;;;;;;;;16.00;16.00;;;;;22.82;66.87;101540.75;146599;668;46013;-69
2022/09/06 04:19:01;;;;;;;;;23.00;21.00;;;;;22.86;67.07;101537.25;146598;618;46026;-78
2022/09/06 04:22:02;;;;;;;;;20.00;17.00;;;;;22.80;67.50;101540.75;146601;582;46010;-75
2022/09/06 04:25:05;;;;;;;;;24.75;21.50;;;;;22.74;67.21;101534.44;146589;583;46019;-73
2022/09/06 04:28:18;;;;;;;;;21.25;18.50;;;;;22.71;67.35;101537.97;146595;589;46018;-72
2022/09/06 04:31:13;;;;;;;;;16.25;16.25;;;;;22.73;67.42;101537.97;146599;632;46010;-73
2022/09/06 04:34:06;;;;;;;;;21.75;21.00;;;;;22.81;67.51;101536.34;146598;569;46010;-72
2022/09/06 04:37:18;;;;;;;;;;;;;;;;;;;;;
2022/09/06 04:40:23;;;;;;;;;21.50;20.25;;;;;22.82;67.16;101535.47;146593;610;46033;-73
2022/09/06 04:43:15;;;;;;;;;20.75;20.75;;;;;22.73;67.58;101530.94;146597;635;46018;-75
2022/09/06 04:46:37;;;;;;;;;23.75;20.25;;;;;20.77;66.90;101200.47;146598;622;46916;-75
2022/09/06 04:49:31;;;;;;;;;20.75;19.75;;;;;22.71;67.94;101523.84;146600;565;46010;-72
2022/09/06 04:52:25;;;;;;;;;22.25;19.50;;;;;22.82;67.77;101527.53;146593;570;46018;-74
2022/09/06 04:55:18;;;;;;;;;25.75;24.25;;;;;22.90;68.14;101528.53;146593;569;46018;-74
2022/09/06 04:58:19;;;;;;;;;22.75;20.25;;;;;22.84;68.03;101533.72;146588;677;46018;-74
2022/09/06 05:01:16;;;;;;;;;20.50;19.50;;;;;22.72;68.36;101538.84;146597;662;46010;-73
2022/09/06 05:04:17;;;;;;;;;21.50;17.50;;;;;22.60;68.37;101536.91;146598;595;46010;-75
2022/09/06 05:07:15;;;;;;;;;25.25;22.75;;;;;22.52;68.89;101534.16;146601;566;46008;-79
2022/09/06 05:10:31;;;;;;;;;21.50;20.50;;;;;22.48;68.98;101545.53;146595;625;46010;-75
2022/09/06 05:13:36;;;;;;;;;;;;;;;;;;;;;
2022/09/06 05:16:39;;;;;;;;;20.50;17.75;;;;;22.57;69.72;101535.09;146595;591;47010;-76
2022/09/06 05:19:33;;;;;;;;;23.00;20.25;;;;;22.63;70.04;101538.72;146597;608;46018;-74
2022/09/06 05:22:29;;;;;;;;;25.25;20.25;;;;;22.61;70.23;101543.97;146594;594;46018;-72
2022/09/06 05:25:22;;;;;;;;;20.00;19.75;;;;;22.60;69.22;101535.16;146590;574;46018;-72
2022/09/06 05:28:17;;;;;;;;;20.25;20.25;;;;;22.68;69.61;101537.00;146595;584;46018;-72
2022/09/06 05:31:27;;;;;;;;;21.00;20.50;;;;;22.86;69.81;101536.38;146595;595;46018;-72
2022/09/06 05:34:35;;;;;;;;;24.25;19.75;;;;;23.04;69.04;101542.84;146598;575;46010;-73
2022/09/06 05:37:39;;;;;;;;;22.00;20.75;;;;;23.20;68.45;101545.69;146597;577;46011;-73
2022/09/06 05:40:40;;;;;;;;;22.00;21.00;;;;;23.33;68.37;101552.00;146598;606;46010;-72
2022/09/06 05:43:33;;;;;;;;;19.75;19.00;;;;;23.43;67.75;101545.97;146596;696;46018;-74
2022/09/06 05:46:27;;;;;;;;;24.50;21.25;;;;;23.52;67.35;101546.97;146597;592;46915;-73
2022/09/06 05:49:30;;;;;;;;;24.75;24.25;;;;;23.64;66.56;101540.88;146597;580;46018;-77
2022/09/06 05:52:32;;;;;;;;;17.25;16.00;;;;;23.77;66.22;101541.06;146597;584;46010;-77
2022/09/06 05:55:28;;;;;;;;;21.50;21.50;;;;;23.85;66.34;101544.69;146593;611;46008;-77
2022/09/06 05:58:43;;;;;;;;;19.50;18.50;;;;;23.85;65.65;101540.25;146595;582;46018;-76
2022/09/06 06:01:51;;;;;;;;;;;;;;;;;;;;;
2022/09/06 06:04:54;;;;;;;;;23.75;19.75;;;;;23.76;66.51;101548.13;146599;583;46010;-78
2022/09/06 06:08:06;;;;;;;;;25.00;22.25;;;;;22.21;66.00;101297.69;146596;591;46018;-74
2022/09/06 06:11:04;;;;;;;;;19.75;19.00;;;;;23.69;67.21;101546.28;146595;599;46912;-73
2022/09/06 06:14:01;;;;;;;;;26.25;24.75;;;;;23.76;67.49;101552.53;146598;565;46010;-74
2022/09/06 06:16:59;;;;;;;;;21.50;20.25;;;;;23.72;67.16;101547.19;146602;676;46018;-75
2022/09/06 06:19:51;;;;;;;;;24.25;21.50;;;;;23.74;67.39;101555.19;146600;604;46010;-75
2022/09/06 06:22:47;;;;;;;;;25.25;21.25;;;;;23.85;67.36;101556.16;146591;599;46019;-74
2022/09/06 06:25:45;;;;;;;;;22.50;22.25;;;;;24.15;67.14;101554.69;146590;626;46012;-73
2022/09/06 06:28:41;;;;;;;;;21.50;19.75;;;;;24.56;65.32;101551.47;146597;582;46915;-75
2022/09/06 06:31:37;;;;;;;;;24.25;20.25;;;;;24.84;64.20;101548.13;146599;588;46019;-74
2022/09/06 06:34:33;;;;;;;;;20.00;19.25;;;;;24.97;63.24;101545.53;146595;661;46018;-74
2022/09/06 06:37:31;;;;;;;;;21.00;19.25;;;;;25.05;62.33;101552.66;146594;593;46010;-75
2022/09/06 06:40:36;;;;;;;;;19.50;17.75;;;;;25.11;62.14;101555.34;146595;569;46010;-75
2022/09/06 06:43:35;;;;;;;;;21.50;19.75;;;;;25.12;62.67;101557.12;146599;598;46018;-75
2022/09/06 06:46:43;;;;;;;;;18.00;18.00;;;;;25.17;61.86;101549.22;146595;597;46019;-72
2022/09/06 06:49:38;;;;;;;;;18.75;18.00;;;;;25.31;62.31;101558.09;146594;607;46018;-73
2022/09/06 06:52:30;;;;;;;;;18.25;17.50;;;;;25.49;62.10;101551.97;146593;636;46915;-74
2022/09/06 06:55:25;;;;;;;;;18.00;16.50;;;;;25.73;61.22;101559.13;146592;565;46018;-73
2022/09/06 06:58:38;;;;;;;;;17.75;16.75;;;;;25.81;61.02;101551.19;146598;587;46010;-70
2022/09/06 07:01:36;;;;;;;;;16.50;15.50;;;;;25.96;59.74;101559.19;146597;632;46018;-72
2022/09/06 07:04:32;;;;;;;;;18.75;16.00;;;;;26.02;60.05;101545.91;146598;715;46911;-71
2022/09/06 07:07:38;;;;;;;;;20.00;16.75;;;;;26.05;60.10;101545.03;146597;591;46019;-72
2022/09/06 07:10:33;;;;;;;;;20.25;17.75;;;;;26.13;58.89;101558.28;146597;606;46018;-71
2022/09/06 07:13:29;;;;;;;;;18.25;16.50;;;;;26.26;58.40;101560.97;146598;571;46018;-72
2022/09/06 07:16:30;;;;;;;;;16.50;15.00;;;;;26.40;57.65;101562.72;146600;582;46018;-72
2022/09/06 07:19:23;;;;;;;;;14.75;14.25;;;;;26.47;58.07;101564.50;146598;625;46018;-73
2022/09/06 07:22:25;;;;;;;;;12.25;11.25;;;;;26.72;56.88;101563.59;146597;577;46011;-73
2022/09/06 07:25:23;;;;;;;;;12.75;12.75;;;;;27.08;57.79;101566.16;146589;607;46018;-74
2022/09/06 07:28:29;;;;;;;;;14.50;12.75;;;;;27.45;55.34;101563.38;146598;574;46018;-73
2022/09/06 07:31:27;;;;;;;;;16.00;14.25;;;;;27.75;54.47;101559.63;146595;586;46019;-73
2022/09/06 07:34:28;;;;;;;;;14.75;14.00;;;;;27.91;54.07;101564.00;146593;576;46018;-72
2022/09/06 07:37:26;;;;;;;;;13.00;12.50;;;;;28.06;55.20;101558.53;146596;604;46019;-73
2022/09/06 07:40:24;;;;;;;;;13.00;13.00;;;;;28.29;53.45;101554.84;146599;576;46010;-72
2022/09/06 07:43:18;;;;;;;;;17.25;15.25;;;;;28.38;52.98;101554.75;146592;737;46018;-73
2022/09/06 07:46:23;;;;;;;;;15.00;13.75;;;;;28.51;54.22;101548.41;146598;564;46019;-72
2022/09/06 07:49:23;;;;;;;;;11.75;11.50;;;;;28.72;53.44;101552.66;146598;598;47008;-73
2022/09/06 07:52:31;;;;;;;;;13.25;13.25;;;;;28.96;53.84;101548.81;146596;614;46018;-72
2022/09/06 07:55:24;;;;;;;;;13.25;11.25;;;;;28.97;51.26;101558.59;146591;691;46010;-72
2022/09/06 07:58:24;;;;;;;;;12.25;10.50;;;;;28.90;53.25;101556.88;146597;605;46913;-73
2022/09/06 08:01:56;;;;;;;;;11.00;10.00;;;;;27.64;52.72;101319.94;146597;692;46018;-72
2022/09/06 08:05:05;;;;;;;;;;;;;;;;;;;;;
2022/09/06 08:08:08;;;;;;;;;10.00;10.00;;;;;28.96;51.26;101555.94;146597;576;47019;-75
2022/09/06 08:11:11;;;;;;;;;;;;;;;;;;;;;
2022/09/06 08:14:10;;;;;;;;;10.25;10.25;;;;;28.88;50.20;101545.37;146597;569;46018;-72
2022/09/06 08:17:07;;;;;;;;;8.75;8.50;;;;;28.76;50.16;101548.16;146603;672;46913;-73
2022/09/06 08:19:59;;;;;;;;;10.00;9.00;;;;;28.75;49.51;101544.63;146598;595;46033;-70
2022/09/06 08:23:00;;;;;;;;;11.00;9.00;;;;;28.73;50.12;101546.41;146599;566;46031;-74
2022/09/06 08:26:09;;;;;;;;;9.75;7.50;;;;;28.66;50.29;101541.13;146589;604;47018;-75
2022/09/06 08:29:07;;;;;;;;;10.67;9.00;;;;;28.75;50.37;101549.03;146598;585;46018;-73
2022/09/06 08:32:04;;;;;;;;;4.67;4.67;;;;;28.95;48.89;101544.38;146601;565;46019;-74
2022/09/06 08:34:59;;;;;;;;;8.67;8.33;;;;;29.08;46.66;101547.81;146599;680;46018;-73
2022/09/06 08:37:52;;;;;;;;;9.00;8.00;;;;;29.12;48.40;101548.66;146599;572;46018;-76
2022/09/06 08:40:48;;;;;;;;;8.67;8.67;;;;;29.00;46.98;101552.31;146598;596;46018;-77
2022/09/06 08:43:57;;;;;;;;;8.00;7.67;;;;;28.73;50.26;101540.19;146599;638;46010;-75
2022/09/06 08:47:24;;;;;;;;;8.00;8.00;;;;;26.88;51.84;101255.75;146602;606;46912;-75
2022/09/06 08:50:19;;;;;;;;;6.33;6.33;;;;;28.63;49.16;101539.41;146597;580;46019;-76
2022/09/06 08:53:31;;;;;;;;;6.33;6.00;;;;;28.70;50.49;101535.78;146598;600;47010;-76
2022/09/06 08:57:03;;;;;;;;;8.00;8.00;;;;;26.91;50.48;101244.22;146594;609;47008;-76
2022/09/06 09:00:10;;;;;;;;;11.33;9.00;;;;;28.42;51.08;101523.62;146597;620;46018;-76
2022/09/06 09:03:33;;;;;;;;;10.00;6.33;;;;;28.28;47.61;101529.91;146599;563;46919;-77
2022/09/06 09:06:36;;;;;;;;;6.67;6.67;;;;;28.18;50.54;101524.69;146603;605;46025;-76
2022/09/06 09:09:40;;;;;;;;;9.67;8.00;;;;;28.14;51.38;101526.50;146600;610;46018;-76
2022/09/06 09:12:45;;;;;;;;;6.33;6.33;;;;;28.16;50.54;101526.47;146594;574;47019;-74
2022/09/06 09:15:43;;;;;;;;;8.33;6.00;;;;;28.27;52.81;101517.50;146602;617;46018;-76
2022/09/06 09:18:51;;;;;;;;;8.00;7.33;;;;;28.54;52.61;101520.84;146602;655;46018;-74
2022/09/06 09:21:46;;;;;;;;;6.00;6.00;;;;;28.81;50.38;101524.06;146597;616;48008;-77
2022/09/06 09:24:41;;;;;;;;;7.67;7.67;;;;;28.85;46.26;101523.12;146600;600;46010;-75
2022/09/06 09:27:59;;;;;;;;;;;;;;;;;;;;;
2022/09/06 09:30:59;;;;;;;;;7.67;7.33;;;;;27.90;48.83;101382.78;146602;703;46018;-77
2022/09/06 09:33:52;;;;;;;;;11.67;9.67;;;;;28.56;49.82;101508.34;146604;563;46018;-77
2022/09/06 09:36:45;;;;;;;;;8.00;7.67;;;;;28.47;48.02;101505.75;146598;594;47010;-78
2022/09/06 09:39:39;;;;;;;;;7.33;7.33;;;;;28.47;50.38;101505.75;146603;574;46018;-77
2022/09/06 09:42:38;;;;;;;;;9.00;8.00;;;;;28.55;51.10;101507.47;146599;638;46913;-77
2022/09/06 09:45:36;;;;;;;;;7.67;6.67;;;;;28.68;50.06;101510.88;146601;620;46010;-77
2022/09/06 09:48:42;;;;;;;;;7.33;7.33;;;;;28.86;50.39;101509.78;146600;603;46018;-77
2022/09/06 09:51:52;;;;;;;;;8.33;8.33;;;;;29.06;50.68;101498.88;146600;569;47012;-77
2022/09/06 09:54:54;;;;;;;;;7.67;6.67;;;;;29.07;48.78;101486.44;146597;600;46018;-77
2022/09/06 09:57:58;;;;;;;;;6.67;6.67;;;;;28.85;50.31;101494.69;146602;585;46028;-77
2022/09/06 10:01:23;;;;;;;;;7.00;7.00;;;;;27.07;51.37;101203.28;146600;628;46018;-78
2022/09/06 10:04:34;;;;;;;;;7.33;7.00;;;;;28.86;51.35;101476.88;146604;572;46010;-75
2022/09/06 10:07:34;;;;;;;;;7.33;6.67;;;;;28.89;49.19;101474.16;146603;578;46010;-76
2022/09/06 10:10:46;;;;;;;;;10.33;6.00;;;;;28.97;49.22;101480.28;146593;647;48018;-74
2022/09/06 10:13:48;;;;;;;;;10.00;8.67;;;;;29.06;48.34;101479.31;146602;688;46010;-74
2022/09/06 10:17:02;;;;;;;;;7.67;6.33;;;;;29.09;49.97;101480.16;146602;664;47008;-75
2022/09/06 10:20:05;;;;;;;;;6.67;6.67;;;;;29.15;46.54;101472.03;146601;622;46019;-77
2022/09/06 10:23:27;;;;;;;;;7.00;6.00;;;;;29.24;48.82;101474.59;146603;641;46018;-77
2022/09/06 10:27:13;;;;;;;;;6.33;5.67;;;;;27.76;50.09;101199.03;146599;577;46018;-78
2022/09/06 10:30:18;;;;;;;;;6.00;6.00;;;;;29.44;48.47;101466.31;146592;579;46018;-74
2022/09/06 10:34:03;;;;;;;;;6.33;5.33;;;;;27.78;49.41;101178.59;146598;565;47010;-75
2022/09/06 10:37:43;;;;;;;;;6.00;5.67;;;;;29.02;48.13;101462.44;146605;573;46010;-76
2022/09/06 10:41:32;;;;;;;;;5.67;5.33;;;;;26.84;49.15;101168.87;146594;607;46018;-77
2022/09/06 10:45:00;;;;;;;;;6.67;5.00;;;;;28.14;50.49;101454.53;146603;590;46010;-75
2022/09/06 10:48:48;;;;;;;;;6.00;4.67;;;;;26.87;50.88;101282.38;146599;613;46913;-77
2022/09/06 10:52:01;;;;;;;;;6.33;5.00;;;;;27.78;51.01;101451.28;146600;570;46010;-76
2022/09/06 10:55:03;;;;;;;;;4.67;4.33;;;;;27.82;51.56;101453.03;146599;579;46018;-77
2022/09/06 10:58:16;;;;;;;;;6.00;5.00;;;;;27.97;50.86;101449.31;146599;571;46018;-75
2022/09/06 11:01:26;;;;;;;;;4.33;4.00;;;;;28.21;49.24;101447.34;146598;565;47010;-76
2022/09/06 11:05:04;;;;;;;;;6.00;5.00;;;;;28.52;48.18;101450.59;146701;564;46012;-77
2022/09/06 11:08:36;;;;;;;;;5.33;4.00;;;;;28.69;48.40;101447.69;146618;563;46016;-74
2022/09/06 11:12:38;;;;;;;;;4.33;3.00;;;;;28.89;49.30;101443.00;146623;583;46020;-75
2022/09/06 11:15:58;;;;;;;;;4.67;4.33;;;;;29.02;48.25;101434.88;146616;588;47012;-76
2022/09/06 11:19:39;;;;;;;;;0.00;0.00;;;;;29.13;45.54;101441.84;146621;704;46021;-75
2022/09/06 11:23:28;;;;;;;;;5.00;4.00;;;;;29.18;49.05;101426.59;146619;641;46012;-76
2022/09/06 11:27:09;;;;;;;;;5.00;4.00;;;;;29.25;47.16;101438.06;146623;585;46011;-76
2022/09/06 11:30:33;;;;;;;;;5.00;5.00;;;;;28.94;47.39;101435.84;146616;588;47012;-77
2022/09/06 11:33:37;;;;;;;;;4.00;4.00;;;;;28.85;47.88;101435.97;146622;583;46021;-73
2022/09/06 11:36:52;;;;;;;;;4.00;4.00;;;;;28.94;48.04;101430.50;146615;584;46016;-79
2022/09/06 11:40:06;;;;;;;;;4.33;4.33;;;;;28.98;46.19;101426.87;146620;588;47010;-76
2022/09/06 11:43:44;;;;;;;;;5.00;5.00;;;;;28.30;48.07;101303.22;146614;614;46914;-74
2022/09/06 11:47:06;;;;;;;;;8.00;7.67;;;;;28.39;47.83;101292.44;146621;586;46020;-74
2022/09/06 11:50:03;;;;;;;;;6.00;6.00;;;;;29.18;45.89;101423.06;146618;659;46038;-72
2022/09/06 11:53:40;;;;;;;;;;;;;;;;;;;;;
2022/09/06 11:57:26;;;;;;;;;5.67;5.67;;;;;28.29;47.71;101285.47;146617;642;47013;-77
2022/09/06 12:00:41;;;;;;;;;;;;;;;;;;;;;
2022/09/06 12:04:08;;;;;;;;;5.33;4.33;;;;;29.17;48.14;101392.81;146614;578;46017;-78
2022/09/06 12:07:20;;;;;;;;;3.00;3.00;;;;;29.14;46.73;101394.66;146617;595;46020;-78
2022/09/06 12:10:49;;;;;;;;;5.00;4.33;;;;;29.11;47.15;101392.03;146615;595;47012;-73
2022/09/06 12:14:34;;;;;;;;;6.00;5.00;;;;;29.09;48.72;101393.81;146623;688;47008;-72
2022/09/06 12:18:02;;;;;;;;;3.67;3.00;;;;;29.09;46.52;101399.16;146613;696;47015;-79
2022/09/06 12:21:57;;;;;;;;;3.00;3.00;;;;;29.06;47.26;101388.53;146620;639;46028;-76
2022/09/06 12:25:25;;;;;;;;;3.67;3.00;;;;;29.09;46.73;101384.00;146616;601;46017;-79
2022/09/06 12:28:55;;;;;;;;;3.67;3.00;;;;;29.06;44.45;101386.72;146615;565;46020;-73
2022/09/06 12:32:17;;;;;;;;;4.33;4.33;;;;;28.94;47.60;101360.16;146620;569;47012;-69
2022/09/06 12:35:50;;;;;;;;;5.00;5.00;;;;;29.11;46.34;101371.53;146622;584;47010;-70
2022/09/06 12:39:19;;;;;;;;;5.00;4.33;;;;;29.14;46.62;101367.94;146618;571;47013;-72
2022/09/06 12:42:29;;;;;;;;;;;;;;;;;;;;;
2022/09/06 12:45:29;;;;;;;;;4.67;4.67;;;;;29.17;45.06;101363.44;146613;579;46016;-68
2022/09/06 12:49:00;;;;;;;;;3.67;3.67;;;;;29.21;47.06;101359.78;146622;587;47011;-76
2022/09/06 12:52:28;;;;;;;;;5.00;4.00;;;;;28.56;47.71;101244.19;146616;652;46016;-81
2022/09/06 12:55:49;;;;;;;;;4.00;4.00;;;;;29.23;46.30;101352.66;146618;611;47010;-77
2022/09/06 12:58:50;;;;;;;;;4.00;3.00;;;;;29.22;44.30;101350.91;146617;594;47012;-74
2022/09/06 13:02:14;;;;;;;;;4.00;4.00;;;;;29.06;41.62;101341.34;146622;657;46010;-72
2022/09/06 13:05:29;;;;;;;;;2.67;2.67;;;;;28.91;47.07;101346.88;146618;653;47012;-71
2022/09/06 13:08:59;;;;;;;;;3.67;3.67;;;;;28.86;45.99;101349.63;146619;576;47010;-73
2022/09/06 13:11:56;;;;;;;;;4.00;4.00;;;;;28.81;44.78;101355.94;146617;626;47012;-74
2022/09/06 13:15:10;;;;;;;;;4.00;4.00;;;;;28.72;46.31;101351.59;146621;606;46020;-75
2022/09/06 13:18:48;;;;;;;;;4.67;4.67;;;;;27.01;47.54;101056.06;146614;575;48012;-74
2022/09/06 13:22:11;;;;;;;;;4.00;4.00;;;;;28.65;47.40;101345.47;146622;616;46020;-74
2022/09/06 13:25:40;;;;;;;;;;;;;;;;;;;;;
2022/09/06 13:28:37;;;;;;;;;4.00;3.67;;;;;28.65;44.03;101339.25;146622;577;46020;-74
2022/09/06 13:32:08;;;;;;;;;5.00;5.00;;;;;27.20;47.47;101088.69;146616;585;46016;-76
2022/09/06 13:35:25;;;;;;;;;4.67;4.67;;;;;27.76;44.20;101180.38;146624;611;47010;-74
2022/09/06 13:38:46;;;;;;;;;3.00;2.67;;;;;28.54;47.22;101326.06;146617;663;46912;-76
2022/09/06 13:41:52;;;;;;;;;3.67;3.67;;;;;28.41;46.08;101330.69;146621;572;46020;-75
2022/09/06 13:45:39;;;;;;;;;3.33;3.33;;;;;26.82;46.90;101058.94;146619;602;46012;-74
2022/09/06 13:49:15;;;;;;;;;;;;;;;;;;;;;
2022/09/06 13:52:42;;;;;;;;;4.00;4.00;;;;;28.40;47.16;101323.56;146617;570;47012;-75
2022/09/06 13:55:45;;;;;;;;;4.00;4.00;;;;;28.33;45.50;101312.06;146620;573;46021;-74
2022/09/06 13:58:49;;;;;;;;;2.33;2.33;;;;;28.25;46.83;101313.06;146618;701;46016;-74
2022/09/06 14:02:10;;;;;;;;;4.00;4.00;;;;;28.24;47.18;101312.19;146622;570;46021;-73
2022/09/06 14:05:10;;;;;;;;;4.00;4.00;;;;;28.24;45.71;101311.31;146612;587;46917;-76
2022/09/06 14:08:11;;;;;;;;;4.33;4.00;;;;;28.20;45.18;101306.91;146618;579;46010;-73
2022/09/06 14:11:04;;;;;;;;;3.00;3.00;;;;;28.18;45.80;101306.91;146610;618;47014;-75
2022/09/06 14:14:11;;;;;;;;;3.00;3.00;;;;;28.14;45.49;101307.00;146611;602;46020;-75
2022/09/06 14:17:36;;;;;;;;;5.67;5.33;;;;;27.23;47.39;101149.91;146612;594;46016;-73
2022/09/06 14:20:47;;;;;;;;;4.00;4.00;;;;;28.06;47.05;101297.28;146610;563;47014;-75
2022/09/06 14:23:47;;;;;;;;;4.00;3.33;;;;;28.04;46.32;101298.22;146611;615;46016;-72
2022/09/06 14:26:48;;;;;;;;;6.00;5.00;;;;;28.02;46.70;101295.56;146619;581;46020;-70
2022/09/06 14:29:52;;;;;;;;;5.00;5.00;;;;;27.96;47.00;101295.63;146610;612;47014;-68
2022/09/06 14:32:50;;;;;;;;;4.00;4.00;;;;;27.91;47.11;101292.13;146616;597;46021;-68
2022/09/06 14:36:07;;;;;;;;;3.33;3.33;;;;;27.94;47.11;101293.88;146613;563;46016;-70
2022/09/06 14:39:21;;;;;;;;;3.33;3.33;;;;;27.95;47.67;101291.22;146617;564;47011;-76
2022/09/06 14:42:30;;;;;;;;;5.00;4.00;;;;;27.96;47.29;101276.97;146613;571;46012;-72
2022/09/06 14:45:30;;;;;;;;;5.00;4.00;;;;;27.96;46.50;101279.62;146616;597;47010;-71
2022/09/06 14:48:41;;;;;;;;;;;;;;;;;;;;;
2022/09/06 14:51:49;;;;;;;;;1.67;1.67;;;;;27.80;47.19;101270.94;146617;595;46020;-73
2022/09/06 14:54:44;;;;;;;;;4.00;4.00;;;;;27.75;46.15;101270.06;146614;662;46016;-71